sensor_id;sensor_type;location;lat;lon;timestamp;temperature;humidity
29201;DHT22;16244;51.956;12.980;2024-02-14T00:02:09;2.20;99.90
29201;DHT22;16244;51.956;12.980;2024-02-14T00:04:36;2.20;99.90
29201;DHT22;16244;51.956;12.980;2024-02-14T00:07:05;2.20;99.90
29201;DHT22;16244;51.956;12.980;2024-02-14T00:09:32;2.10;99.90
29201;DHT22;16244;51.956;12.980;2024-02-14T00:12:01;2.00;99.90
29201;DHT22;16244;51.956;12.980;2024-02-14T00:14:28;2.10;99.90
29201;DHT22;16244;51.956;12.980;2024-02-14T00:16:56;2.10;99.90
29201;DHT22;16244;51.956;12.980;2024-02-14T00:19:25;2.00;99.90
29201;DHT22;16244;51.956;12.980;2024-02-14T00:21:53;2.00;99.90
29201;DHT22;16244;51.956;12.980;2024-02-14T00:24:20;1.90;99.90
29201;DHT22;16244;51.956;12.980;2024-02-14T00:26:48;1.90;99.90
29201;DHT22;16244;51.956;12.980;2024-02-14T00:29:17;1.90;99.90
29201;DHT22;16244;51.956;12.980;2024-02-14T00:31:45;2.00;99.90
29201;DHT22;16244;51.956;12.980;2024-02-14T00:34:12;2.10;99.90
29201;DHT22;16244;51.956;12.980;2024-02-14T00:36:40;2.20;99.90
29201;DHT22;16244;51.956;12.980;2024-02-14T00:39:07;2.20;99.90
29201;DHT22;16244;51.956;12.980;2024-02-14T00:41:35;2.20;99.90
29201;DHT22;16244;51.956;12.980;2024-02-14T00:44:03;2.10;99.90
29201;DHT22;16244;51.956;12.980;2024-02-14T00:46:32;2.10;99.90
29201;DHT22;16244;51.956;12.980;2024-02-14T00:48:59;2.20;99.90
29201;DHT22;16244;51.956;12.980;2024-02-14T00:51:27;2.30;99.90
29201;DHT22;16244;51.956;12.980;2024-02-14T00:53:56;2.30;99.90
29201;DHT22;16244;51.956;12.980;2024-02-14T00:56:23;2.40;99.90
29201;DHT22;16244;51.956;12.980;2024-02-14T00:58:51;2.40;99.90
29201;DHT22;16244;51.956;12.980;2024-02-14T01:01:18;2.50;99.90
29201;DHT22;16244;51.956;12.980;2024-02-14T01:03:47;2.50;99.90
29201;DHT22;16244;51.956;12.980;2024-02-14T01:06:14;2.50;99.90
29201;DHT22;16244;51.956;12.980;2024-02-14T01:08:42;2.60;99.90
29201;DHT22;16244;51.956;12.980;2024-02-14T01:11:10;2.60;99.90
29201;DHT22;16244;51.956;12.980;2024-02-14T01:13:37;2.60;99.90
29201;DHT22;16244;51.956;12.980;2024-02-14T01:16:05;2.60;99.90
29201;DHT22;16244;51.956;12.980;2024-02-14T01:18:34;2.60;99.90
29201;DHT22;16244;51.956;12.980;2024-02-14T01:21:03;2.60;99.90
29201;DHT22;16244;51.956;12.980;2024-02-14T01:23:32;2.60;99.90
29201;DHT22;16244;51.956;12.980;2024-02-14T01:26:04;2.60;99.90
29201;DHT22;16244;51.956;12.980;2024-02-14T01:28:32;2.60;99.90
29201;DHT22;16244;51.956;12.980;2024-02-14T01:30:59;2.60;99.90
29201;DHT22;16244;51.956;12.980;2024-02-14T01:33:27;2.60;99.90
29201;DHT22;16244;51.956;12.980;2024-02-14T01:35:55;2.60;99.90
29201;DHT22;16244;51.956;12.980;2024-02-14T01:38:25;2.60;99.90
29201;DHT22;16244;51.956;12.980;2024-02-14T01:40:52;2.70;99.90
29201;DHT22;16244;51.956;12.980;2024-02-14T01:43:20;2.70;99.90
29201;DHT22;16244;51.956;12.980;2024-02-14T01:45:47;2.70;99.90
29201;DHT22;16244;51.956;12.980;2024-02-14T01:48:15;2.70;99.90
29201;DHT22;16244;51.956;12.980;2024-02-14T01:50:44;2.80;99.90
29201;DHT22;16244;51.956;12.980;2024-02-14T01:53:12;2.70;99.90
29201;DHT22;16244;51.956;12.980;2024-02-14T01:55:41;2.70;99.90
29201;DHT22;16244;51.956;12.980;2024-02-14T01:58:09;2.70;99.90
29201;DHT22;16244;51.956;12.980;2024-02-14T02:00:37;2.80;99.90
29201;DHT22;16244;51.956;12.980;2024-02-14T02:03:04;2.80;99.90
29201;DHT22;16244;51.956;12.980;2024-02-14T02:05:32;2.80;99.90
29201;DHT22;16244;51.956;12.980;2024-02-14T02:08:00;2.80;99.90
29201;DHT22;16244;51.956;12.980;2024-02-14T02:10:28;2.80;99.90
29201;DHT22;16244;51.956;12.980;2024-02-14T02:12:59;2.80;99.90
29201;DHT22;16244;51.956;12.980;2024-02-14T02:15:27;2.80;99.90
29201;DHT22;16244;51.956;12.980;2024-02-14T02:17:55;2.90;99.90
29201;DHT22;16244;51.956;12.980;2024-02-14T02:20:23;2.90;99.90
29201;DHT22;16244;51.956;12.980;2024-02-14T02:22:52;2.90;99.90
29201;DHT22;16244;51.956;12.980;2024-02-14T02:25:19;2.90;99.90
29201;DHT22;16244;51.956;12.980;2024-02-14T02:27:51;2.90;99.90
29201;DHT22;16244;51.956;12.980;2024-02-14T02:30:18;2.90;99.90
29201;DHT22;16244;51.956;12.980;2024-02-14T02:32:45;2.90;99.90
29201;DHT22;16244;51.956;12.980;2024-02-14T02:35:13;2.90;99.90
29201;DHT22;16244;51.956;12.980;2024-02-14T02:37:40;2.90;99.90
29201;DHT22;16244;51.956;12.980;2024-02-14T02:40:11;2.90;99.90
29201;DHT22;16244;51.956;12.980;2024-02-14T02:42:39;2.90;99.90
29201;DHT22;16244;51.956;12.980;2024-02-14T02:45:07;2.90;99.90
29201;DHT22;16244;51.956;12.980;2024-02-14T02:47:35;2.90;99.90
29201;DHT22;16244;51.956;12.980;2024-02-14T02:50:03;2.90;99.90
29201;DHT22;16244;51.956;12.980;2024-02-14T02:52:32;2.90;99.90
29201;DHT22;16244;51.956;12.980;2024-02-14T02:54:59;2.80;99.90
29201;DHT22;16244;51.956;12.980;2024-02-14T02:57:29;2.80;99.90
29201;DHT22;16244;51.956;12.980;2024-02-14T02:59:58;2.90;99.90
29201;DHT22;16244;51.956;12.980;2024-02-14T03:02:26;2.80;99.90
29201;DHT22;16244;51.956;12.980;2024-02-14T03:04:54;2.80;99.90
29201;DHT22;16244;51.956;12.980;2024-02-14T03:07:21;2.80;99.90
29201;DHT22;16244;51.956;12.980;2024-02-14T03:09:49;2.80;99.90
29201;DHT22;16244;51.956;12.980;2024-02-14T03:12:17;2.70;99.90
29201;DHT22;16244;51.956;12.980;2024-02-14T03:14:46;2.70;99.90
29201;DHT22;16244;51.956;12.980;2024-02-14T03:17:13;2.70;99.90
29201;DHT22;16244;51.956;12.980;2024-02-14T03:19:41;2.80;99.90
29201;DHT22;16244;51.956;12.980;2024-02-14T03:22:08;2.70;99.90
29201;DHT22;16244;51.956;12.980;2024-02-14T03:24:37;2.80;99.90
29201;DHT22;16244;51.956;12.980;2024-02-14T03:27:05;2.80;99.90
29201;DHT22;16244;51.956;12.980;2024-02-14T03:29:32;2.80;99.90
29201;DHT22;16244;51.956;12.980;2024-02-14T03:32:02;2.80;99.90
29201;DHT22;16244;51.956;12.980;2024-02-14T03:34:31;2.80;99.90
29201;DHT22;16244;51.956;12.980;2024-02-14T03:37:00;2.80;99.90
29201;DHT22;16244;51.956;12.980;2024-02-14T03:39:28;2.80;99.90
29201;DHT22;16244;51.956;12.980;2024-02-14T03:41:56;2.90;99.90
29201;DHT22;16244;51.956;12.980;2024-02-14T03:44:27;2.90;99.90
29201;DHT22;16244;51.956;12.980;2024-02-14T03:46:54;2.90;99.90
29201;DHT22;16244;51.956;12.980;2024-02-14T03:49:23;3.00;99.90
29201;DHT22;16244;51.956;12.980;2024-02-14T03:51:52;3.00;99.90
29201;DHT22;16244;51.956;12.980;2024-02-14T03:54:20;3.00;99.90
29201;DHT22;16244;51.956;12.980;2024-02-14T03:56:49;3.10;99.90
29201;DHT22;16244;51.956;12.980;2024-02-14T03:59:17;3.10;99.90
29201;DHT22;16244;51.956;12.980;2024-02-14T04:01:50;3.10;99.90
29201;DHT22;16244;51.956;12.980;2024-02-14T04:04:19;3.10;99.90
29201;DHT22;16244;51.956;12.980;2024-02-14T04:06:48;3.10;99.90
29201;DHT22;16244;51.956;12.980;2024-02-14T04:09:16;3.20;99.90
29201;DHT22;16244;51.956;12.980;2024-02-14T04:11:43;3.20;99.90
29201;DHT22;16244;51.956;12.980;2024-02-14T04:14:11;3.30;99.90
29201;DHT22;16244;51.956;12.980;2024-02-14T04:16:38;3.30;99.90
29201;DHT22;16244;51.956;12.980;2024-02-14T04:19:06;3.30;99.90
29201;DHT22;16244;51.956;12.980;2024-02-14T04:21:35;3.30;99.90
29201;DHT22;16244;51.956;12.980;2024-02-14T04:24:04;3.30;99.90
29201;DHT22;16244;51.956;12.980;2024-02-14T04:26:34;3.40;99.90
29201;DHT22;16244;51.956;12.980;2024-02-14T04:29:02;3.40;99.90
29201;DHT22;16244;51.956;12.980;2024-02-14T04:31:29;3.40;99.90
29201;DHT22;16244;51.956;12.980;2024-02-14T04:33:57;3.40;99.90
29201;DHT22;16244;51.956;12.980;2024-02-14T04:36:25;3.40;99.90
29201;DHT22;16244;51.956;12.980;2024-02-14T04:38:52;3.30;99.90
29201;DHT22;16244;51.956;12.980;2024-02-14T04:41:23;3.30;99.90
29201;DHT22;16244;51.956;12.980;2024-02-14T04:43:50;3.30;99.90
29201;DHT22;16244;51.956;12.980;2024-02-14T04:46:18;3.30;99.90
29201;DHT22;16244;51.956;12.980;2024-02-14T04:48:45;3.30;99.90
29201;DHT22;16244;51.956;12.980;2024-02-14T04:51:13;3.30;99.90
29201;DHT22;16244;51.956;12.980;2024-02-14T04:53:40;3.30;99.90
29201;DHT22;16244;51.956;12.980;2024-02-14T04:56:08;3.30;99.90
29201;DHT22;16244;51.956;12.980;2024-02-14T04:58:36;3.20;99.90
29201;DHT22;16244;51.956;12.980;2024-02-14T05:01:04;3.20;99.90
29201;DHT22;16244;51.956;12.980;2024-02-14T05:03:33;3.20;99.90
29201;DHT22;16244;51.956;12.980;2024-02-14T05:06:00;3.20;99.90
29201;DHT22;16244;51.956;12.980;2024-02-14T05:08:29;3.20;99.90
29201;DHT22;16244;51.956;12.980;2024-02-14T05:10:56;3.20;99.90
29201;DHT22;16244;51.956;12.980;2024-02-14T05:13:24;3.20;99.90
29201;DHT22;16244;51.956;12.980;2024-02-14T05:15:52;3.30;99.90
29201;DHT22;16244;51.956;12.980;2024-02-14T05:18:20;3.30;99.90
29201;DHT22;16244;51.956;12.980;2024-02-14T05:20:47;3.30;99.90
29201;DHT22;16244;51.956;12.980;2024-02-14T05:23:15;3.40;99.90
29201;DHT22;16244;51.956;12.980;2024-02-14T05:25:43;3.40;99.90
29201;DHT22;16244;51.956;12.980;2024-02-14T05:28:11;3.40;99.90
29201;DHT22;16244;51.956;12.980;2024-02-14T05:30:40;3.40;99.90
29201;DHT22;16244;51.956;12.980;2024-02-14T05:33:09;3.40;99.90
29201;DHT22;16244;51.956;12.980;2024-02-14T05:35:37;3.40;99.90
29201;DHT22;16244;51.956;12.980;2024-02-14T05:38:05;3.40;99.90
29201;DHT22;16244;51.956;12.980;2024-02-14T05:40:34;3.40;99.90
29201;DHT22;16244;51.956;12.980;2024-02-14T05:43:04;3.40;99.90
29201;DHT22;16244;51.956;12.980;2024-02-14T05:45:33;3.40;99.90
29201;DHT22;16244;51.956;12.980;2024-02-14T05:48:01;3.50;99.90
29201;DHT22;16244;51.956;12.980;2024-02-14T05:50:31;3.50;99.90
29201;DHT22;16244;51.956;12.980;2024-02-14T05:52:58;3.40;99.90
29201;DHT22;16244;51.956;12.980;2024-02-14T05:55:26;3.40;99.90
29201;DHT22;16244;51.956;12.980;2024-02-14T05:57:53;3.40;99.90
29201;DHT22;16244;51.956;12.980;2024-02-14T06:00:21;3.50;99.90
29201;DHT22;16244;51.956;12.980;2024-02-14T06:02:48;3.60;99.90
29201;DHT22;16244;51.956;12.980;2024-02-14T06:05:16;3.50;99.90
29201;DHT22;16244;51.956;12.980;2024-02-14T06:07:45;3.70;99.90
29201;DHT22;16244;51.956;12.980;2024-02-14T06:10:13;3.70;99.90
29201;DHT22;16244;51.956;12.980;2024-02-14T06:12:40;3.70;99.90
29201;DHT22;16244;51.956;12.980;2024-02-14T06:15:09;3.70;99.90
29201;DHT22;16244;51.956;12.980;2024-02-14T06:17:38;3.70;99.90
29201;DHT22;16244;51.956;12.980;2024-02-14T06:20:07;3.70;99.90
29201;DHT22;16244;51.956;12.980;2024-02-14T06:22:35;3.80;99.90
29201;DHT22;16244;51.956;12.980;2024-02-14T06:25:06;3.80;99.90
29201;DHT22;16244;51.956;12.980;2024-02-14T06:27:34;3.80;99.90
29201;DHT22;16244;51.956;12.980;2024-02-14T06:30:03;3.80;99.90
29201;DHT22;16244;51.956;12.980;2024-02-14T06:32:32;3.80;99.90
29201;DHT22;16244;51.956;12.980;2024-02-14T06:35:01;3.90;99.90
29201;DHT22;16244;51.956;12.980;2024-02-14T06:37:30;3.90;99.90
29201;DHT22;16244;51.956;12.980;2024-02-14T06:39:58;3.90;99.90
29201;DHT22;16244;51.956;12.980;2024-02-14T06:42:27;4.00;99.90
29201;DHT22;16244;51.956;12.980;2024-02-14T06:44:54;4.00;99.90
29201;DHT22;16244;51.956;12.980;2024-02-14T06:47:22;4.00;99.90
29201;DHT22;16244;51.956;12.980;2024-02-14T06:49:49;4.10;99.90
29201;DHT22;16244;51.956;12.980;2024-02-14T06:52:16;4.10;99.90
29201;DHT22;16244;51.956;12.980;2024-02-14T06:54:44;4.10;99.90
29201;DHT22;16244;51.956;12.980;2024-02-14T06:57:12;4.20;99.90
29201;DHT22;16244;51.956;12.980;2024-02-14T06:59:41;4.20;99.90
29201;DHT22;16244;51.956;12.980;2024-02-14T07:02:08;4.30;99.90
29201;DHT22;16244;51.956;12.980;2024-02-14T07:04:36;4.40;99.90
29201;DHT22;16244;51.956;12.980;2024-02-14T07:07:03;4.50;99.90
29201;DHT22;16244;51.956;12.980;2024-02-14T07:09:31;4.50;99.90
29201;DHT22;16244;51.956;12.980;2024-02-14T07:12:01;4.60;99.90
29201;DHT22;16244;51.956;12.980;2024-02-14T07:14:29;4.60;99.90
29201;DHT22;16244;51.956;12.980;2024-02-14T07:16:58;4.60;99.90
29201;DHT22;16244;51.956;12.980;2024-02-14T07:19:25;4.70;99.90
29201;DHT22;16244;51.956;12.980;2024-02-14T07:21:53;4.70;99.90
29201;DHT22;16244;51.956;12.980;2024-02-14T07:24:20;4.70;99.90
29201;DHT22;16244;51.956;12.980;2024-02-14T07:26:48;4.70;99.90
29201;DHT22;16244;51.956;12.980;2024-02-14T07:29:15;4.80;99.90
29201;DHT22;16244;51.956;12.980;2024-02-14T07:31:42;4.80;99.90
29201;DHT22;16244;51.956;12.980;2024-02-14T07:34:11;4.90;99.90
29201;DHT22;16244;51.956;12.980;2024-02-14T07:36:39;5.00;99.90
29201;DHT22;16244;51.956;12.980;2024-02-14T07:39:07;5.10;99.90
29201;DHT22;16244;51.956;12.980;2024-02-14T07:41:35;5.10;99.90
29201;DHT22;16244;51.956;12.980;2024-02-14T07:44:02;5.10;99.90
29201;DHT22;16244;51.956;12.980;2024-02-14T07:46:30;5.20;99.90
29201;DHT22;16244;51.956;12.980;2024-02-14T07:48:58;5.30;99.90
29201;DHT22;16244;51.956;12.980;2024-02-14T07:51:27;5.30;99.90
29201;DHT22;16244;51.956;12.980;2024-02-14T07:53:55;5.40;99.90
29201;DHT22;16244;51.956;12.980;2024-02-14T07:56:23;5.50;99.90
29201;DHT22;16244;51.956;12.980;2024-02-14T07:58:50;5.60;99.90
29201;DHT22;16244;51.956;12.980;2024-02-14T08:01:17;5.60;99.90
29201;DHT22;16244;51.956;12.980;2024-02-14T08:03:45;5.70;99.90
29201;DHT22;16244;51.956;12.980;2024-02-14T08:06:13;5.80;99.90
29201;DHT22;16244;51.956;12.980;2024-02-14T08:08:42;5.80;99.90
29201;DHT22;16244;51.956;12.980;2024-02-14T08:11:10;5.80;99.90
29201;DHT22;16244;51.956;12.980;2024-02-14T08:13:39;5.90;99.90
29201;DHT22;16244;51.956;12.980;2024-02-14T08:16:07;5.90;99.90
29201;DHT22;16244;51.956;12.980;2024-02-14T08:18:34;6.00;99.90
29201;DHT22;16244;51.956;12.980;2024-02-14T08:21:03;6.00;99.90
29201;DHT22;16244;51.956;12.980;2024-02-14T08:23:31;6.10;99.90
29201;DHT22;16244;51.956;12.980;2024-02-14T08:26:00;6.10;99.90
29201;DHT22;16244;51.956;12.980;2024-02-14T08:28:28;6.10;99.90
29201;DHT22;16244;51.956;12.980;2024-02-14T08:30:55;6.20;99.90
29201;DHT22;16244;51.956;12.980;2024-02-14T08:33:23;6.20;99.90
29201;DHT22;16244;51.956;12.980;2024-02-14T08:35:50;6.20;99.90
29201;DHT22;16244;51.956;12.980;2024-02-14T08:38:19;6.20;99.90
29201;DHT22;16244;51.956;12.980;2024-02-14T08:40:47;6.20;99.90
29201;DHT22;16244;51.956;12.980;2024-02-14T08:43:16;6.10;99.90
29201;DHT22;16244;51.956;12.980;2024-02-14T08:45:43;6.10;99.90
29201;DHT22;16244;51.956;12.980;2024-02-14T08:48:11;6.00;99.90
29201;DHT22;16244;51.956;12.980;2024-02-14T08:50:38;5.90;99.90
29201;DHT22;16244;51.956;12.980;2024-02-14T08:53:05;5.90;99.90
29201;DHT22;16244;51.956;12.980;2024-02-14T08:55:33;5.90;99.90
29201;DHT22;16244;51.956;12.980;2024-02-14T08:58:01;5.80;99.90
29201;DHT22;16244;51.956;12.980;2024-02-14T09:00:29;5.80;99.90
29201;DHT22;16244;51.956;12.980;2024-02-14T09:02:58;5.80;99.90
29201;DHT22;16244;51.956;12.980;2024-02-14T09:05:26;5.80;99.90
29201;DHT22;16244;51.956;12.980;2024-02-14T09:07:54;5.70;99.90
29201;DHT22;16244;51.956;12.980;2024-02-14T09:10:22;5.70;99.90
29201;DHT22;16244;51.956;12.980;2024-02-14T09:12:49;5.80;99.90
29201;DHT22;16244;51.956;12.980;2024-02-14T09:15:17;5.80;99.90
29201;DHT22;16244;51.956;12.980;2024-02-14T09:17:46;5.80;99.90
29201;DHT22;16244;51.956;12.980;2024-02-14T09:20:13;5.80;99.90
29201;DHT22;16244;51.956;12.980;2024-02-14T09:22:41;5.90;99.90
29201;DHT22;16244;51.956;12.980;2024-02-14T09:25:09;6.00;99.90
29201;DHT22;16244;51.956;12.980;2024-02-14T09:27:37;6.00;99.90
29201;DHT22;16244;51.956;12.980;2024-02-14T09:30:05;6.10;99.90
29201;DHT22;16244;51.956;12.980;2024-02-14T09:32:33;6.10;99.90
29201;DHT22;16244;51.956;12.980;2024-02-14T09:35:02;6.20;99.90
29201;DHT22;16244;51.956;12.980;2024-02-14T09:37:32;6.20;99.90
29201;DHT22;16244;51.956;12.980;2024-02-14T09:40:00;6.20;99.90
29201;DHT22;16244;51.956;12.980;2024-02-14T09:42:32;6.20;99.90
29201;DHT22;16244;51.956;12.980;2024-02-14T09:45:01;6.20;99.90
29201;DHT22;16244;51.956;12.980;2024-02-14T09:47:30;6.30;99.90
29201;DHT22;16244;51.956;12.980;2024-02-14T09:50:03;6.30;99.90
29201;DHT22;16244;51.956;12.980;2024-02-14T09:52:32;6.40;99.90
29201;DHT22;16244;51.956;12.980;2024-02-14T09:55:01;6.40;99.90
29201;DHT22;16244;51.956;12.980;2024-02-14T09:57:31;6.50;99.90
29201;DHT22;16244;51.956;12.980;2024-02-14T10:00:00;6.50;99.90
29201;DHT22;16244;51.956;12.980;2024-02-14T10:02:30;6.60;99.90
29201;DHT22;16244;51.956;12.980;2024-02-14T10:04:57;6.60;99.90
29201;DHT22;16244;51.956;12.980;2024-02-14T10:07:26;6.70;99.90
29201;DHT22;16244;51.956;12.980;2024-02-14T10:09:53;6.70;99.90
29201;DHT22;16244;51.956;12.980;2024-02-14T10:12:21;6.70;99.90
29201;DHT22;16244;51.956;12.980;2024-02-14T10:14:48;6.70;99.90
29201;DHT22;16244;51.956;12.980;2024-02-14T10:17:19;6.80;99.90
29201;DHT22;16244;51.956;12.980;2024-02-14T10:19:55;6.90;99.90
29201;DHT22;16244;51.956;12.980;2024-02-14T10:22:23;7.00;99.90
29201;DHT22;16244;51.956;12.980;2024-02-14T10:24:52;7.00;99.90
29201;DHT22;16244;51.956;12.980;2024-02-14T10:27:21;7.00;99.90
29201;DHT22;16244;51.956;12.980;2024-02-14T10:29:48;7.10;99.90
29201;DHT22;16244;51.956;12.980;2024-02-14T10:32:15;7.20;99.90
29201;DHT22;16244;51.956;12.980;2024-02-14T10:34:43;7.20;99.90
29201;DHT22;16244;51.956;12.980;2024-02-14T10:37:14;7.20;99.90
29201;DHT22;16244;51.956;12.980;2024-02-14T10:39:43;7.20;99.90
29201;DHT22;16244;51.956;12.980;2024-02-14T10:42:15;7.30;99.90
29201;DHT22;16244;51.956;12.980;2024-02-14T10:44:43;7.40;99.90
29201;DHT22;16244;51.956;12.980;2024-02-14T10:47:14;7.50;99.90
29201;DHT22;16244;51.956;12.980;2024-02-14T10:49:46;7.50;99.90
29201;DHT22;16244;51.956;12.980;2024-02-14T10:52:16;7.50;99.90
29201;DHT22;16244;51.956;12.980;2024-02-14T10:54:48;7.60;99.90
29201;DHT22;16244;51.956;12.980;2024-02-14T10:57:19;7.60;99.90
29201;DHT22;16244;51.956;12.980;2024-02-14T10:59:48;7.70;99.90
29201;DHT22;16244;51.956;12.980;2024-02-14T11:02:16;7.60;99.90
29201;DHT22;16244;51.956;12.980;2024-02-14T11:04:45;7.70;99.90
29201;DHT22;16244;51.956;12.980;2024-02-14T11:07:13;7.70;99.90
29201;DHT22;16244;51.956;12.980;2024-02-14T11:09:41;7.70;99.90
29201;DHT22;16244;51.956;12.980;2024-02-14T11:12:09;7.70;99.90
29201;DHT22;16244;51.956;12.980;2024-02-14T11:14:42;7.80;99.90
29201;DHT22;16244;51.956;12.980;2024-02-14T11:17:12;7.80;99.90
29201;DHT22;16244;51.956;12.980;2024-02-14T11:19:40;7.80;99.90
29201;DHT22;16244;51.956;12.980;2024-02-14T11:22:11;7.90;99.90
29201;DHT22;16244;51.956;12.980;2024-02-14T11:24:40;8.00;99.90
29201;DHT22;16244;51.956;12.980;2024-02-14T11:27:10;8.00;99.90
29201;DHT22;16244;51.956;12.980;2024-02-14T11:29:40;8.00;99.90
29201;DHT22;16244;51.956;12.980;2024-02-14T11:32:09;8.00;99.90
29201;DHT22;16244;51.956;12.980;2024-02-14T11:34:38;8.00;99.90
29201;DHT22;16244;51.956;12.980;2024-02-14T11:37:05;8.00;99.90
29201;DHT22;16244;51.956;12.980;2024-02-14T11:39:34;7.90;99.90
29201;DHT22;16244;51.956;12.980;2024-02-14T11:42:01;8.00;99.90
29201;DHT22;16244;51.956;12.980;2024-02-14T11:44:29;8.00;99.90
29201;DHT22;16244;51.956;12.980;2024-02-14T11:46:57;8.00;99.90
29201;DHT22;16244;51.956;12.980;2024-02-14T11:49:25;8.00;99.90
29201;DHT22;16244;51.956;12.980;2024-02-14T11:51:53;8.10;99.90
29201;DHT22;16244;51.956;12.980;2024-02-14T11:54:20;8.20;99.90
29201;DHT22;16244;51.956;12.980;2024-02-14T11:56:48;8.20;99.90
29201;DHT22;16244;51.956;12.980;2024-02-14T11:59:15;8.20;99.90
29201;DHT22;16244;51.956;12.980;2024-02-14T12:01:46;8.20;99.90
29201;DHT22;16244;51.956;12.980;2024-02-14T12:04:16;8.20;99.90
29201;DHT22;16244;51.956;12.980;2024-02-14T12:06:44;8.20;99.90
29201;DHT22;16244;51.956;12.980;2024-02-14T12:09:12;8.30;99.90
29201;DHT22;16244;51.956;12.980;2024-02-14T12:11:41;8.30;99.90
29201;DHT22;16244;51.956;12.980;2024-02-14T12:14:09;8.40;99.90
29201;DHT22;16244;51.956;12.980;2024-02-14T12:16:38;8.50;99.90
29201;DHT22;16244;51.956;12.980;2024-02-14T12:19:07;8.60;99.90
29201;DHT22;16244;51.956;12.980;2024-02-14T12:21:37;8.70;99.90
29201;DHT22;16244;51.956;12.980;2024-02-14T12:24:07;8.70;99.90
29201;DHT22;16244;51.956;12.980;2024-02-14T12:26:35;8.70;99.90
29201;DHT22;16244;51.956;12.980;2024-02-14T12:29:03;8.80;99.90
29201;DHT22;16244;51.956;12.980;2024-02-14T12:31:31;8.80;99.90
29201;DHT22;16244;51.956;12.980;2024-02-14T12:33:58;8.90;99.90
29201;DHT22;16244;51.956;12.980;2024-02-14T12:36:28;8.90;99.90
29201;DHT22;16244;51.956;12.980;2024-02-14T12:38:57;8.90;99.90
29201;DHT22;16244;51.956;12.980;2024-02-14T12:41:25;8.90;99.90
29201;DHT22;16244;51.956;12.980;2024-02-14T12:43:56;8.90;99.90
29201;DHT22;16244;51.956;12.980;2024-02-14T12:46:23;8.90;99.90
29201;DHT22;16244;51.956;12.980;2024-02-14T12:48:51;9.00;99.90
29201;DHT22;16244;51.956;12.980;2024-02-14T12:51:18;9.00;99.90
29201;DHT22;16244;51.956;12.980;2024-02-14T12:53:46;9.10;99.90
29201;DHT22;16244;51.956;12.980;2024-02-14T12:56:15;9.10;99.90
29201;DHT22;16244;51.956;12.980;2024-02-14T12:58:42;9.10;99.90
29201;DHT22;16244;51.956;12.980;2024-02-14T13:01:10;9.10;99.90
29201;DHT22;16244;51.956;12.980;2024-02-14T13:03:38;9.10;99.90
29201;DHT22;16244;51.956;12.980;2024-02-14T13:06:06;9.10;99.90
29201;DHT22;16244;51.956;12.980;2024-02-14T13:08:33;9.10;99.90
29201;DHT22;16244;51.956;12.980;2024-02-14T13:11:02;9.10;99.90
29201;DHT22;16244;51.956;12.980;2024-02-14T13:13:31;9.10;99.90
29201;DHT22;16244;51.956;12.980;2024-02-14T13:15:58;9.20;99.90
29201;DHT22;16244;51.956;12.980;2024-02-14T13:18:26;9.20;99.90
29201;DHT22;16244;51.956;12.980;2024-02-14T13:20:53;9.20;99.90
29201;DHT22;16244;51.956;12.980;2024-02-14T13:23:25;9.20;99.90
29201;DHT22;16244;51.956;12.980;2024-02-14T13:25:53;9.10;99.90
29201;DHT22;16244;51.956;12.980;2024-02-14T13:28:20;9.10;99.90
29201;DHT22;16244;51.956;12.980;2024-02-14T13:30:49;9.10;99.90
29201;DHT22;16244;51.956;12.980;2024-02-14T13:33:17;9.10;99.90
29201;DHT22;16244;51.956;12.980;2024-02-14T13:35:44;9.30;99.90
29201;DHT22;16244;51.956;12.980;2024-02-14T13:38:12;9.30;99.90
29201;DHT22;16244;51.956;12.980;2024-02-14T13:40:39;9.40;99.90
29201;DHT22;16244;51.956;12.980;2024-02-14T13:43:06;9.30;99.90
29201;DHT22;16244;51.956;12.980;2024-02-14T13:45:40;9.40;99.90
29201;DHT22;16244;51.956;12.980;2024-02-14T13:48:10;9.40;99.90
29201;DHT22;16244;51.956;12.980;2024-02-14T13:50:38;9.50;99.90
29201;DHT22;16244;51.956;12.980;2024-02-14T13:53:06;9.50;99.90
29201;DHT22;16244;51.956;12.980;2024-02-14T13:55:34;9.50;99.90
29201;DHT22;16244;51.956;12.980;2024-02-14T13:58:01;9.50;99.90
29201;DHT22;16244;51.956;12.980;2024-02-14T14:00:29;9.60;99.90
29201;DHT22;16244;51.956;12.980;2024-02-14T14:02:56;9.60;99.90
29201;DHT22;16244;51.956;12.980;2024-02-14T14:05:25;9.70;99.90
29201;DHT22;16244;51.956;12.980;2024-02-14T14:07:52;9.80;99.90
29201;DHT22;16244;51.956;12.980;2024-02-14T14:10:20;9.70;99.90
29201;DHT22;16244;51.956;12.980;2024-02-14T14:12:48;9.70;99.90
29201;DHT22;16244;51.956;12.980;2024-02-14T14:15:15;9.80;99.90
29201;DHT22;16244;51.956;12.980;2024-02-14T14:17:42;9.80;99.90
29201;DHT22;16244;51.956;12.980;2024-02-14T14:20:10;9.80;99.90
29201;DHT22;16244;51.956;12.980;2024-02-14T14:22:39;9.70;99.90
29201;DHT22;16244;51.956;12.980;2024-02-14T14:25:07;9.70;99.90
29201;DHT22;16244;51.956;12.980;2024-02-14T14:27:35;9.70;99.90
29201;DHT22;16244;51.956;12.980;2024-02-14T14:30:04;9.70;99.90
29201;DHT22;16244;51.956;12.980;2024-02-14T14:32:33;9.70;99.90
29201;DHT22;16244;51.956;12.980;2024-02-14T14:35:00;9.80;99.90
29201;DHT22;16244;51.956;12.980;2024-02-14T14:37:28;9.80;99.90
29201;DHT22;16244;51.956;12.980;2024-02-14T14:39:57;9.80;99.90
29201;DHT22;16244;51.956;12.980;2024-02-14T14:42:26;9.80;99.90
29201;DHT22;16244;51.956;12.980;2024-02-14T14:44:53;9.80;99.90
29201;DHT22;16244;51.956;12.980;2024-02-14T14:47:21;9.80;99.90
29201;DHT22;16244;51.956;12.980;2024-02-14T14:49:49;9.80;99.90
29201;DHT22;16244;51.956;12.980;2024-02-14T14:52:16;9.90;99.90
29201;DHT22;16244;51.956;12.980;2024-02-14T14:54:44;9.90;99.90
29201;DHT22;16244;51.956;12.980;2024-02-14T14:57:13;9.90;99.90
29201;DHT22;16244;51.956;12.980;2024-02-14T14:59:41;9.90;99.90
29201;DHT22;16244;51.956;12.980;2024-02-14T15:02:09;9.90;99.90
29201;DHT22;16244;51.956;12.980;2024-02-14T15:04:37;9.90;99.90
29201;DHT22;16244;51.956;12.980;2024-02-14T15:07:06;9.90;99.90
29201;DHT22;16244;51.956;12.980;2024-02-14T15:09:33;9.80;99.90
29201;DHT22;16244;51.956;12.980;2024-02-14T15:12:01;9.80;99.90
29201;DHT22;16244;51.956;12.980;2024-02-14T15:14:30;9.70;99.90
29201;DHT22;16244;51.956;12.980;2024-02-14T15:16:57;9.70;99.90
29201;DHT22;16244;51.956;12.980;2024-02-14T15:19:25;9.70;99.90
29201;DHT22;16244;51.956;12.980;2024-02-14T15:21:52;9.70;99.90
29201;DHT22;16244;51.956;12.980;2024-02-14T15:24:20;9.70;99.90
29201;DHT22;16244;51.956;12.980;2024-02-14T15:26:47;9.70;99.90
29201;DHT22;16244;51.956;12.980;2024-02-14T15:29:26;9.70;99.90
29201;DHT22;16244;51.956;12.980;2024-02-14T15:32:12;9.60;99.90
29201;DHT22;16244;51.956;12.980;2024-02-14T15:34:58;9.60;99.90
29201;DHT22;16244;51.956;12.980;2024-02-14T15:37:31;9.60;99.90